sensor_id;sensor_type;location;lat;lon;timestamp;temperature;humidity
52058;DHT22;38063;53.210;6.504;2023-05-01T00:00:11;8.50;99.90
52058;DHT22;38063;53.210;6.504;2023-05-01T00:02:37;8.50;99.90
52058;DHT22;38063;53.210;6.504;2023-05-01T00:05:03;8.70;99.90
52058;DHT22;38063;53.210;6.504;2023-05-01T00:07:29;8.50;99.90
52058;DHT22;38063;53.210;6.504;2023-05-01T00:09:58;8.40;99.90
52058;DHT22;38063;53.210;6.504;2023-05-01T00:12:25;8.40;99.90
52058;DHT22;38063;53.210;6.504;2023-05-01T00:14:52;8.40;99.90
52058;DHT22;38063;53.210;6.504;2023-05-01T00:17:18;8.40;99.90
52058;DHT22;38063;53.210;6.504;2023-05-01T00:19:43;8.60;99.90
52058;DHT22;38063;53.210;6.504;2023-05-01T00:22:09;8.30;99.90
52058;DHT22;38063;53.210;6.504;2023-05-01T00:24:35;8.30;99.90
52058;DHT22;38063;53.210;6.504;2023-05-01T00:27:00;8.40;99.90
52058;DHT22;38063;53.210;6.504;2023-05-01T00:29:26;8.40;99.90
52058;DHT22;38063;53.210;6.504;2023-05-01T00:31:53;8.40;99.90
52058;DHT22;38063;53.210;6.504;2023-05-01T00:34:19;8.30;99.90
52058;DHT22;38063;53.210;6.504;2023-05-01T00:36:45;8.40;99.90
52058;DHT22;38063;53.210;6.504;2023-05-01T00:39:10;8.30;99.90
52058;DHT22;38063;53.210;6.504;2023-05-01T00:41:36;8.30;99.90
52058;DHT22;38063;53.210;6.504;2023-05-01T00:44:02;8.30;99.90
52058;DHT22;38063;53.210;6.504;2023-05-01T00:46:29;8.30;99.90
52058;DHT22;38063;53.210;6.504;2023-05-01T00:48:56;8.30;99.90
52058;DHT22;38063;53.210;6.504;2023-05-01T00:51:22;8.20;99.90
52058;DHT22;38063;53.210;6.504;2023-05-01T00:53:48;8.40;99.90
52058;DHT22;38063;53.210;6.504;2023-05-01T00:56:14;8.30;99.90
52058;DHT22;38063;53.210;6.504;2023-05-01T00:58:40;8.20;99.90
52058;DHT22;38063;53.210;6.504;2023-05-01T01:01:06;8.20;99.90
52058;DHT22;38063;53.210;6.504;2023-05-01T01:03:35;8.20;99.90
52058;DHT22;38063;53.210;6.504;2023-05-01T01:06:14;8.20;99.90
52058;DHT22;38063;53.210;6.504;2023-05-01T01:11:42;8.10;99.90
52058;DHT22;38063;53.210;6.504;2023-05-01T01:14:18;8.20;99.90
52058;DHT22;38063;53.210;6.504;2023-05-01T01:16:58;8.10;99.90
52058;DHT22;38063;53.210;6.504;2023-05-01T01:22:15;8.10;99.90
52058;DHT22;38063;53.210;6.504;2023-05-01T01:34:06;8.00;99.90
52058;DHT22;38063;53.210;6.504;2023-05-01T01:36:21;8.00;99.90
52058;DHT22;38063;53.210;6.504;2023-05-01T01:39:13;8.00;99.90
52058;DHT22;38063;53.210;6.504;2023-05-01T01:41:42;8.00;99.90
52058;DHT22;38063;53.210;6.504;2023-05-01T01:44:16;8.00;99.90
52058;DHT22;38063;53.210;6.504;2023-05-01T01:46:47;8.60;99.90
52058;DHT22;38063;53.210;6.504;2023-05-01T01:49:19;7.90;99.90
52058;DHT22;38063;53.210;6.504;2023-05-01T01:51:46;7.90;99.90
52058;DHT22;38063;53.210;6.504;2023-05-01T01:54:14;7.90;99.90
52058;DHT22;38063;53.210;6.504;2023-05-01T01:56:43;7.90;99.90
52058;DHT22;38063;53.210;6.504;2023-05-01T01:59:10;8.10;99.90
52058;DHT22;38063;53.210;6.504;2023-05-01T02:01:39;7.80;99.90
52058;DHT22;38063;53.210;6.504;2023-05-01T02:04:07;8.10;99.90
52058;DHT22;38063;53.210;6.504;2023-05-01T02:06:35;7.80;99.90
52058;DHT22;38063;53.210;6.504;2023-05-01T02:09:03;7.80;99.90
52058;DHT22;38063;53.210;6.504;2023-05-01T02:11:31;7.80;99.90
52058;DHT22;38063;53.210;6.504;2023-05-01T02:13:59;7.80;99.90
52058;DHT22;38063;53.210;6.504;2023-05-01T02:16:26;7.80;99.90
52058;DHT22;38063;53.210;6.504;2023-05-01T02:18:53;7.80;99.90
52058;DHT22;38063;53.210;6.504;2023-05-01T02:21:20;7.80;99.90
52058;DHT22;38063;53.210;6.504;2023-05-01T02:23:47;7.70;99.90
52058;DHT22;38063;53.210;6.504;2023-05-01T02:26:15;7.70;99.90
52058;DHT22;38063;53.210;6.504;2023-05-01T02:28:42;7.70;99.90
52058;DHT22;38063;53.210;6.504;2023-05-01T02:31:09;7.70;99.90
52058;DHT22;38063;53.210;6.504;2023-05-01T02:33:35;7.70;99.90
52058;DHT22;38063;53.210;6.504;2023-05-01T02:36:00;7.90;99.90
52058;DHT22;38063;53.210;6.504;2023-05-01T02:38:26;7.70;99.90
52058;DHT22;38063;53.210;6.504;2023-05-01T02:40:56;7.60;99.90
52058;DHT22;38063;53.210;6.504;2023-05-01T02:43:24;7.60;99.90
52058;DHT22;38063;53.210;6.504;2023-05-01T02:45:52;7.60;99.90
52058;DHT22;38063;53.210;6.504;2023-05-01T02:48:25;7.60;99.90
52058;DHT22;38063;53.210;6.504;2023-05-01T02:50:52;7.60;99.90
52058;DHT22;38063;53.210;6.504;2023-05-01T02:53:20;7.50;99.90
52058;DHT22;38063;53.210;6.504;2023-05-01T02:55:47;7.50;99.90
52058;DHT22;38063;53.210;6.504;2023-05-01T02:58:17;7.50;99.90
52058;DHT22;38063;53.210;6.504;2023-05-01T03:00:43;7.50;99.90
52058;DHT22;38063;53.210;6.504;2023-05-01T03:03:10;7.40;99.90
52058;DHT22;38063;53.210;6.504;2023-05-01T03:05:37;7.40;99.90
52058;DHT22;38063;53.210;6.504;2023-05-01T03:08:03;7.40;99.90
52058;DHT22;38063;53.210;6.504;2023-05-01T03:10:29;7.40;99.90
52058;DHT22;38063;53.210;6.504;2023-05-01T03:12:54;7.40;99.90
52058;DHT22;38063;53.210;6.504;2023-05-01T03:15:20;7.30;99.90
52058;DHT22;38063;53.210;6.504;2023-05-01T03:17:46;7.30;99.90
52058;DHT22;38063;53.210;6.504;2023-05-01T03:20:11;7.30;99.90
52058;DHT22;38063;53.210;6.504;2023-05-01T03:22:38;7.30;99.90
52058;DHT22;38063;53.210;6.504;2023-05-01T03:25:04;7.20;99.90
52058;DHT22;38063;53.210;6.504;2023-05-01T03:27:30;7.20;99.90
52058;DHT22;38063;53.210;6.504;2023-05-01T03:29:56;7.20;99.90
52058;DHT22;38063;53.210;6.504;2023-05-01T03:32:21;7.10;99.90
52058;DHT22;38063;53.210;6.504;2023-05-01T03:34:47;7.10;99.90
52058;DHT22;38063;53.210;6.504;2023-05-01T03:37:13;7.10;99.90
52058;DHT22;38063;53.210;6.504;2023-05-01T03:39:40;7.10;99.90
52058;DHT22;38063;53.210;6.504;2023-05-01T03:42:06;7.10;99.90
52058;DHT22;38063;53.210;6.504;2023-05-01T03:44:31;7.10;99.90
52058;DHT22;38063;53.210;6.504;2023-05-01T03:46:57;7.00;99.90
52058;DHT22;38063;53.210;6.504;2023-05-01T03:49:23;7.00;99.90
52058;DHT22;38063;53.210;6.504;2023-05-01T03:51:49;6.90;99.90
52058;DHT22;38063;53.210;6.504;2023-05-01T03:54:14;6.90;99.90
52058;DHT22;38063;53.210;6.504;2023-05-01T03:56:40;6.80;99.90
52058;DHT22;38063;53.210;6.504;2023-05-01T03:59:06;6.80;99.90
52058;DHT22;38063;53.210;6.504;2023-05-01T04:01:31;6.80;99.90
52058;DHT22;38063;53.210;6.504;2023-05-01T04:04:00;6.80;99.90
52058;DHT22;38063;53.210;6.504;2023-05-01T04:06:26;6.80;99.90
52058;DHT22;38063;53.210;6.504;2023-05-01T04:08:52;6.80;99.90
52058;DHT22;38063;53.210;6.504;2023-05-01T04:11:18;6.80;99.90
52058;DHT22;38063;53.210;6.504;2023-05-01T04:13:43;6.80;99.90
52058;DHT22;38063;53.210;6.504;2023-05-01T04:16:09;6.70;99.90
52058;DHT22;38063;53.210;6.504;2023-05-01T04:18:35;6.70;99.90
52058;DHT22;38063;53.210;6.504;2023-05-01T04:21:01;6.70;99.90
52058;DHT22;38063;53.210;6.504;2023-05-01T04:23:27;6.70;99.90
52058;DHT22;38063;53.210;6.504;2023-05-01T04:25:52;6.70;99.90
52058;DHT22;38063;53.210;6.504;2023-05-01T04:28:18;6.70;99.90
52058;DHT22;38063;53.210;6.504;2023-05-01T04:30:43;6.70;99.90
52058;DHT22;38063;53.210;6.504;2023-05-01T04:33:10;6.70;99.90
52058;DHT22;38063;53.210;6.504;2023-05-01T04:35:39;6.70;99.90
52058;DHT22;38063;53.210;6.504;2023-05-01T04:38:06;6.80;99.90
52058;DHT22;38063;53.210;6.504;2023-05-01T04:40:32;7.20;99.90
52058;DHT22;38063;53.210;6.504;2023-05-01T04:42:57;6.80;99.90
52058;DHT22;38063;53.210;6.504;2023-05-01T04:45:23;6.80;99.90
52058;DHT22;38063;53.210;6.504;2023-05-01T04:47:49;6.90;99.90
52058;DHT22;38063;53.210;6.504;2023-05-01T04:50:15;6.90;99.90
52058;DHT22;38063;53.210;6.504;2023-05-01T04:52:40;7.10;99.90
52058;DHT22;38063;53.210;6.504;2023-05-01T04:55:07;7.00;99.90
52058;DHT22;38063;53.210;6.504;2023-05-01T04:57:33;7.00;99.90
52058;DHT22;38063;53.210;6.504;2023-05-01T04:59:59;7.00;99.90
52058;DHT22;38063;53.210;6.504;2023-05-01T05:02:25;7.10;99.90
52058;DHT22;38063;53.210;6.504;2023-05-01T05:04:51;7.10;99.90
52058;DHT22;38063;53.210;6.504;2023-05-01T05:07:19;7.20;99.90
52058;DHT22;38063;53.210;6.504;2023-05-01T05:09:45;7.20;99.90
52058;DHT22;38063;53.210;6.504;2023-05-01T05:12:11;7.30;99.90
52058;DHT22;38063;53.210;6.504;2023-05-01T05:14:39;7.30;99.90
52058;DHT22;38063;53.210;6.504;2023-05-01T05:17:05;7.40;99.90
52058;DHT22;38063;53.210;6.504;2023-05-01T05:19:31;7.50;99.90
52058;DHT22;38063;53.210;6.504;2023-05-01T05:21:56;7.60;99.90
52058;DHT22;38063;53.210;6.504;2023-05-01T05:24:22;7.70;99.90
52058;DHT22;38063;53.210;6.504;2023-05-01T05:26:48;7.70;99.90
52058;DHT22;38063;53.210;6.504;2023-05-01T05:29:13;7.80;99.90
52058;DHT22;38063;53.210;6.504;2023-05-01T05:31:39;7.90;99.90
52058;DHT22;38063;53.210;6.504;2023-05-01T05:34:05;8.00;99.90
52058;DHT22;38063;53.210;6.504;2023-05-01T05:36:30;8.00;99.90
52058;DHT22;38063;53.210;6.504;2023-05-01T05:38:57;8.10;99.90
52058;DHT22;38063;53.210;6.504;2023-05-01T05:41:23;8.20;99.90
52058;DHT22;38063;53.210;6.504;2023-05-01T05:43:49;8.20;99.90
52058;DHT22;38063;53.210;6.504;2023-05-01T05:46:14;8.30;99.90
52058;DHT22;38063;53.210;6.504;2023-05-01T05:48:40;8.40;99.90
52058;DHT22;38063;53.210;6.504;2023-05-01T05:51:06;8.40;99.90
52058;DHT22;38063;53.210;6.504;2023-05-01T05:53:31;8.40;99.90
52058;DHT22;38063;53.210;6.504;2023-05-01T05:55:57;8.40;99.90
52058;DHT22;38063;53.210;6.504;2023-05-01T05:58:23;8.40;99.90
52058;DHT22;38063;53.210;6.504;2023-05-01T06:00:49;8.90;99.90
52058;DHT22;38063;53.210;6.504;2023-05-01T06:03:16;8.60;99.90
52058;DHT22;38063;53.210;6.504;2023-05-01T06:05:42;8.90;99.90
52058;DHT22;38063;53.210;6.504;2023-05-01T06:08:08;8.60;99.90
52058;DHT22;38063;53.210;6.504;2023-05-01T06:10:38;8.80;99.90
52058;DHT22;38063;53.210;6.504;2023-05-01T06:13:04;8.90;99.90
52058;DHT22;38063;53.210;6.504;2023-05-01T06:15:33;9.00;99.90
52058;DHT22;38063;53.210;6.504;2023-05-01T06:17:59;9.10;99.90
52058;DHT22;38063;53.210;6.504;2023-05-01T06:20:25;9.30;99.90
52058;DHT22;38063;53.210;6.504;2023-05-01T06:22:51;9.40;99.90
52058;DHT22;38063;53.210;6.504;2023-05-01T06:25:16;9.60;99.90
52058;DHT22;38063;53.210;6.504;2023-05-01T06:27:42;9.70;99.90
52058;DHT22;38063;53.210;6.504;2023-05-01T06:30:08;10.10;99.90
52058;DHT22;38063;53.210;6.504;2023-05-01T06:32:34;10.00;99.90
52058;DHT22;38063;53.210;6.504;2023-05-01T06:35:00;10.10;99.90
52058;DHT22;38063;53.210;6.504;2023-05-01T06:37:25;10.30;99.90
52058;DHT22;38063;53.210;6.504;2023-05-01T06:39:51;10.50;99.90
52058;DHT22;38063;53.210;6.504;2023-05-01T06:42:16;10.90;99.90
52058;DHT22;38063;53.210;6.504;2023-05-01T06:44:42;10.80;99.90
52058;DHT22;38063;53.210;6.504;2023-05-01T06:47:08;10.90;99.90
52058;DHT22;38063;53.210;6.504;2023-05-01T06:49:34;11.10;99.90
52058;DHT22;38063;53.210;6.504;2023-05-01T06:52:00;11.20;99.90
52058;DHT22;38063;53.210;6.504;2023-05-01T06:54:26;11.40;99.90
52058;DHT22;38063;53.210;6.504;2023-05-01T06:56:54;11.50;99.90
52058;DHT22;38063;53.210;6.504;2023-05-01T06:59:20;11.60;99.90
52058;DHT22;38063;53.210;6.504;2023-05-01T07:01:46;11.70;99.90
52058;DHT22;38063;53.210;6.504;2023-05-01T07:04:11;11.90;99.90
52058;DHT22;38063;53.210;6.504;2023-05-01T07:06:37;11.90;99.90
52058;DHT22;38063;53.210;6.504;2023-05-01T07:09:06;12.00;99.90
52058;DHT22;38063;53.210;6.504;2023-05-01T07:11:32;12.00;99.90
52058;DHT22;38063;53.210;6.504;2023-05-01T07:13:58;12.10;99.90
52058;DHT22;38063;53.210;6.504;2023-05-01T07:16:24;12.10;99.90
52058;DHT22;38063;53.210;6.504;2023-05-01T07:18:49;12.20;99.90
52058;DHT22;38063;53.210;6.504;2023-05-01T07:21:15;12.30;99.90
52058;DHT22;38063;53.210;6.504;2023-05-01T07:23:41;12.40;99.90
52058;DHT22;38063;53.210;6.504;2023-05-01T07:26:06;12.40;99.90
52058;DHT22;38063;53.210;6.504;2023-05-01T07:28:32;12.60;99.90
52058;DHT22;38063;53.210;6.504;2023-05-01T07:30:58;12.80;99.90
52058;DHT22;38063;53.210;6.504;2023-05-01T07:33:25;13.00;99.90
52058;DHT22;38063;53.210;6.504;2023-05-01T07:35:51;13.20;99.90
52058;DHT22;38063;53.210;6.504;2023-05-01T07:38:16;13.30;99.90
52058;DHT22;38063;53.210;6.504;2023-05-01T07:40:42;13.40;99.90
52058;DHT22;38063;53.210;6.504;2023-05-01T07:43:08;13.60;99.90
52058;DHT22;38063;53.210;6.504;2023-05-01T07:45:38;13.80;99.90
52058;DHT22;38063;53.210;6.504;2023-05-01T07:48:04;13.90;99.90
52058;DHT22;38063;53.210;6.504;2023-05-01T07:50:30;14.10;99.90
52058;DHT22;38063;53.210;6.504;2023-05-01T07:52:56;14.40;99.90
52058;DHT22;38063;53.210;6.504;2023-05-01T07:55:22;14.50;99.90
52058;DHT22;38063;53.210;6.504;2023-05-01T07:57:48;14.70;99.90
52058;DHT22;38063;53.210;6.504;2023-05-01T08:00:15;14.80;99.90
52058;DHT22;38063;53.210;6.504;2023-05-01T08:02:41;15.00;99.90
52058;DHT22;38063;53.210;6.504;2023-05-01T08:05:07;15.20;99.90
52058;DHT22;38063;53.210;6.504;2023-05-01T08:07:33;15.40;99.90
52058;DHT22;38063;53.210;6.504;2023-05-01T08:09:59;15.50;99.90
52058;DHT22;38063;53.210;6.504;2023-05-01T08:12:25;15.60;99.90
52058;DHT22;38063;53.210;6.504;2023-05-01T08:14:51;15.70;99.90
52058;DHT22;38063;53.210;6.504;2023-05-01T08:17:17;15.90;99.90
52058;DHT22;38063;53.210;6.504;2023-05-01T08:19:43;16.00;99.90
52058;DHT22;38063;53.210;6.504;2023-05-01T08:22:09;16.10;99.90
52058;DHT22;38063;53.210;6.504;2023-05-01T08:24:35;16.30;99.90
52058;DHT22;38063;53.210;6.504;2023-05-01T08:27:01;16.60;99.90
52058;DHT22;38063;53.210;6.504;2023-05-01T08:29:27;16.70;99.90
52058;DHT22;38063;53.210;6.504;2023-05-01T08:31:54;16.80;99.80
52058;DHT22;38063;53.210;6.504;2023-05-01T08:34:20;16.90;99.90
52058;DHT22;38063;53.210;6.504;2023-05-01T08:36:47;17.10;99.90
52058;DHT22;38063;53.210;6.504;2023-05-01T08:39:12;17.30;99.90
52058;DHT22;38063;53.210;6.504;2023-05-01T08:41:39;17.50;99.90
52058;DHT22;38063;53.210;6.504;2023-05-01T08:44:07;17.80;99.90
52058;DHT22;38063;53.210;6.504;2023-05-01T08:46:37;17.90;99.40
52058;DHT22;38063;53.210;6.504;2023-05-01T08:49:08;17.90;98.70
52058;DHT22;38063;53.210;6.504;2023-05-01T08:51:36;18.00;97.80
52058;DHT22;38063;53.210;6.504;2023-05-01T08:54:05;18.10;97.20
52058;DHT22;38063;53.210;6.504;2023-05-01T08:56:35;18.20;97.20
52058;DHT22;38063;53.210;6.504;2023-05-01T08:59:03;18.10;96.20
52058;DHT22;38063;53.210;6.504;2023-05-01T09:01:30;18.00;95.90
52058;DHT22;38063;53.210;6.504;2023-05-01T09:03:57;18.00;95.60
52058;DHT22;38063;53.210;6.504;2023-05-01T09:06:27;17.90;95.20
52058;DHT22;38063;53.210;6.504;2023-05-01T09:08:53;17.90;94.90
52058;DHT22;38063;53.210;6.504;2023-05-01T09:11:21;17.90;94.40
52058;DHT22;38063;53.210;6.504;2023-05-01T09:13:47;18.10;94.20
52058;DHT22;38063;53.210;6.504;2023-05-01T09:16:13;18.10;94.10
52058;DHT22;38063;53.210;6.504;2023-05-01T09:18:39;18.20;93.70
52058;DHT22;38063;53.210;6.504;2023-05-01T09:21:06;18.20;93.00
52058;DHT22;38063;53.210;6.504;2023-05-01T09:23:32;18.20;92.80
52058;DHT22;38063;53.210;6.504;2023-05-01T09:26:03;18.40;93.60
52058;DHT22;38063;53.210;6.504;2023-05-01T09:28:43;18.60;93.40
52058;DHT22;38063;53.210;6.504;2023-05-01T09:31:26;18.80;93.10
52058;DHT22;38063;53.210;6.504;2023-05-01T09:33:56;19.00;92.80
52058;DHT22;38063;53.210;6.504;2023-05-01T09:36:24;19.00;92.70
52058;DHT22;38063;53.210;6.504;2023-05-01T09:38:50;19.10;92.40
52058;DHT22;38063;53.210;6.504;2023-05-01T09:41:16;19.20;91.70
52058;DHT22;38063;53.210;6.504;2023-05-01T09:43:54;19.20;91.10
52058;DHT22;38063;53.210;6.504;2023-05-01T09:46:22;19.30;90.60
52058;DHT22;38063;53.210;6.504;2023-05-01T09:49:06;19.30;90.50
52058;DHT22;38063;53.210;6.504;2023-05-01T09:51:33;19.30;90.20
52058;DHT22;38063;53.210;6.504;2023-05-01T09:54:01;19.50;90.00
52058;DHT22;38063;53.210;6.504;2023-05-01T09:56:31;19.70;88.90
52058;DHT22;38063;53.210;6.504;2023-05-01T09:59:13;19.70;87.00
52058;DHT22;38063;53.210;6.504;2023-05-01T10:01:43;19.70;85.80
52058;DHT22;38063;53.210;6.504;2023-05-01T10:04:10;19.70;86.20
52058;DHT22;38063;53.210;6.504;2023-05-01T10:06:37;19.80;85.80
52058;DHT22;38063;53.210;6.504;2023-05-01T10:09:03;19.80;84.50
52058;DHT22;38063;53.210;6.504;2023-05-01T10:11:49;19.90;84.40
52058;DHT22;38063;53.210;6.504;2023-05-01T10:14:16;19.90;84.80
52058;DHT22;38063;53.210;6.504;2023-05-01T10:16:43;19.90;87.90
52058;DHT22;38063;53.210;6.504;2023-05-01T10:19:09;19.90;87.70
52058;DHT22;38063;53.210;6.504;2023-05-01T10:21:35;20.10;87.50
52058;DHT22;38063;53.210;6.504;2023-05-01T10:24:01;20.00;87.20
52058;DHT22;38063;53.210;6.504;2023-05-01T10:26:35;20.00;87.00
52058;DHT22;38063;53.210;6.504;2023-05-01T10:29:02;20.10;86.50
52058;DHT22;38063;53.210;6.504;2023-05-01T10:31:28;20.00;86.30
52058;DHT22;38063;53.210;6.504;2023-05-01T10:33:57;20.10;87.30
52058;DHT22;38063;53.210;6.504;2023-05-01T10:36:36;20.10;86.30
52058;DHT22;38063;53.210;6.504;2023-05-01T10:39:04;20.30;86.60
52058;DHT22;38063;53.210;6.504;2023-05-01T10:44:24;20.40;84.00
52058;DHT22;38063;53.210;6.504;2023-05-01T10:46:51;20.50;86.10
52058;DHT22;38063;53.210;6.504;2023-05-01T10:49:17;20.50;86.40
52058;DHT22;38063;53.210;6.504;2023-05-01T10:54:31;20.60;83.80
52058;DHT22;38063;53.210;6.504;2023-05-01T10:57:01;20.70;83.50
52058;DHT22;38063;53.210;6.504;2023-05-01T11:02:26;20.70;84.20
52058;DHT22;38063;53.210;6.504;2023-05-01T11:04:51;20.50;84.60
52058;DHT22;38063;53.210;6.504;2023-05-01T11:07:19;20.60;85.10
52058;DHT22;38063;53.210;6.504;2023-05-01T11:09:51;20.70;85.10
52058;DHT22;38063;53.210;6.504;2023-05-01T11:15:10;20.40;83.20
52058;DHT22;38063;53.210;6.504;2023-05-01T11:17:45;20.30;84.10
52058;DHT22;38063;53.210;6.504;2023-05-01T11:22:50;20.20;84.20
52058;DHT22;38063;53.210;6.504;2023-05-01T11:25:26;20.20;84.50
52058;DHT22;38063;53.210;6.504;2023-05-01T11:27:53;20.30;84.40
52058;DHT22;38063;53.210;6.504;2023-05-01T11:30:19;20.10;83.90
52058;DHT22;38063;53.210;6.504;2023-05-01T11:32:46;20.20;85.50
52058;DHT22;38063;53.210;6.504;2023-05-01T11:35:20;20.30;86.90
52058;DHT22;38063;53.210;6.504;2023-05-01T11:37:46;20.50;86.10
52058;DHT22;38063;53.210;6.504;2023-05-01T11:40:26;20.50;84.50
52058;DHT22;38063;53.210;6.504;2023-05-01T11:43:03;20.50;83.20
52058;DHT22;38063;53.210;6.504;2023-05-01T11:45:29;20.40;82.50
52058;DHT22;38063;53.210;6.504;2023-05-01T11:47:56;20.20;82.70
52058;DHT22;38063;53.210;6.504;2023-05-01T11:50:22;20.00;83.10
52058;DHT22;38063;53.210;6.504;2023-05-01T11:52:56;19.90;83.60
52058;DHT22;38063;53.210;6.504;2023-05-01T11:55:30;19.70;83.80
52058;DHT22;38063;53.210;6.504;2023-05-01T11:57:56;19.60;83.10
52058;DHT22;38063;53.210;6.504;2023-05-01T12:00:42;19.50;83.70
52058;DHT22;38063;53.210;6.504;2023-05-01T12:03:09;19.60;84.20
52058;DHT22;38063;53.210;6.504;2023-05-01T12:05:40;19.60;84.80
52058;DHT22;38063;53.210;6.504;2023-05-01T12:08:15;19.50;84.80
52058;DHT22;38063;53.210;6.504;2023-05-01T12:10:50;19.40;84.60
52058;DHT22;38063;53.210;6.504;2023-05-01T12:13:17;19.20;85.90
52058;DHT22;38063;53.210;6.504;2023-05-01T12:15:45;19.10;86.80
52058;DHT22;38063;53.210;6.504;2023-05-01T12:18:15;19.10;86.70
52058;DHT22;38063;53.210;6.504;2023-05-01T12:20:47;19.10;87.50
52058;DHT22;38063;53.210;6.504;2023-05-01T12:23:14;19.20;87.10
52058;DHT22;38063;53.210;6.504;2023-05-01T12:25:43;19.20;86.70
52058;DHT22;38063;53.210;6.504;2023-05-01T12:28:15;19.00;86.20
52058;DHT22;38063;53.210;6.504;2023-05-01T12:30:45;19.00;86.60
52058;DHT22;38063;53.210;6.504;2023-05-01T12:33:18;19.00;86.90
52058;DHT22;38063;53.210;6.504;2023-05-01T12:35:46;19.00;86.60
52058;DHT22;38063;53.210;6.504;2023-05-01T12:38:19;18.80;87.00
52058;DHT22;38063;53.210;6.504;2023-05-01T12:40:55;18.80;87.20
52058;DHT22;38063;53.210;6.504;2023-05-01T12:43:32;18.80;87.20
52058;DHT22;38063;53.210;6.504;2023-05-01T12:45:59;18.70;87.30
52058;DHT22;38063;53.210;6.504;2023-05-01T12:48:25;18.70;87.70
52058;DHT22;38063;53.210;6.504;2023-05-01T12:50:51;18.80;88.10
52058;DHT22;38063;53.210;6.504;2023-05-01T12:53:26;18.70;88.20
52058;DHT22;38063;53.210;6.504;2023-05-01T12:55:56;18.70;87.80
52058;DHT22;38063;53.210;6.504;2023-05-01T12:58:22;18.60;87.80
52058;DHT22;38063;53.210;6.504;2023-05-01T13:00:50;18.60;87.90
52058;DHT22;38063;53.210;6.504;2023-05-01T13:03:25;18.60;88.00
52058;DHT22;38063;53.210;6.504;2023-05-01T13:06:01;18.60;87.80
52058;DHT22;38063;53.210;6.504;2023-05-01T13:08:33;18.60;87.90
52058;DHT22;38063;53.210;6.504;2023-05-01T13:11:00;18.60;87.90
52058;DHT22;38063;53.210;6.504;2023-05-01T13:13:33;18.50;88.30
52058;DHT22;38063;53.210;6.504;2023-05-01T13:16:08;18.40;89.10
52058;DHT22;38063;53.210;6.504;2023-05-01T13:18:54;18.20;89.40
52058;DHT22;38063;53.210;6.504;2023-05-01T13:21:21;18.10;90.20
52058;DHT22;38063;53.210;6.504;2023-05-01T13:23:55;17.90;90.40
52058;DHT22;38063;53.210;6.504;2023-05-01T13:26:29;17.80;90.40
52058;DHT22;38063;53.210;6.504;2023-05-01T13:28:57;17.80;90.70
52058;DHT22;38063;53.210;6.504;2023-05-01T13:31:25;17.80;90.90
52058;DHT22;38063;53.210;6.504;2023-05-01T13:33:52;17.80;91.10
52058;DHT22;38063;53.210;6.504;2023-05-01T13:36:19;17.70;91.20
52058;DHT22;38063;53.210;6.504;2023-05-01T13:38:47;17.70;91.30
52058;DHT22;38063;53.210;6.504;2023-05-01T13:41:22;17.70;91.20
52058;DHT22;38063;53.210;6.504;2023-05-01T13:43:49;17.70;91.10
52058;DHT22;38063;53.210;6.504;2023-05-01T13:46:18;17.70;90.90
52058;DHT22;38063;53.210;6.504;2023-05-01T13:48:44;17.60;90.90
52058;DHT22;38063;53.210;6.504;2023-05-01T13:51:12;17.50;91.00
52058;DHT22;38063;53.210;6.504;2023-05-01T13:53:39;17.50;91.10
52058;DHT22;38063;53.210;6.504;2023-05-01T13:56:09;17.40;91.30
52058;DHT22;38063;53.210;6.504;2023-05-01T13:58:35;17.30;91.30
52058;DHT22;38063;53.210;6.504;2023-05-01T14:01:01;17.30;91.50
52058;DHT22;38063;53.210;6.504;2023-05-01T14:03:38;17.20;92.00
52058;DHT22;38063;53.210;6.504;2023-05-01T14:06:08;17.20;92.10
52058;DHT22;38063;53.210;6.504;2023-05-01T14:08:34;17.20;92.30
52058;DHT22;38063;53.210;6.504;2023-05-01T14:11:04;17.20;92.40
52058;DHT22;38063;53.210;6.504;2023-05-01T14:13:30;17.10;92.30
52058;DHT22;38063;53.210;6.504;2023-05-01T14:15:56;17.10;92.40
52058;DHT22;38063;53.210;6.504;2023-05-01T14:18:21;17.00;92.70
52058;DHT22;38063;53.210;6.504;2023-05-01T14:20:47;17.10;92.90
52058;DHT22;38063;53.210;6.504;2023-05-01T14:23:15;17.00;93.10
52058;DHT22;38063;53.210;6.504;2023-05-01T14:25:44;17.00;93.30
52058;DHT22;38063;53.210;6.504;2023-05-01T14:28:10;16.90;93.40
52058;DHT22;38063;53.210;6.504;2023-05-01T14:30:39;16.90;93.90
52058;DHT22;38063;53.210;6.504;2023-05-01T14:33:10;16.80;93.90
52058;DHT22;38063;53.210;6.504;2023-05-01T14:35:36;16.80;93.80
52058;DHT22;38063;53.210;6.504;2023-05-01T14:38:09;16.80;93.80
52058;DHT22;38063;53.210;6.504;2023-05-01T14:40:39;16.80;94.20
52058;DHT22;38063;53.210;6.504;2023-05-01T14:43:05;16.60;93.90
52058;DHT22;38063;53.210;6.504;2023-05-01T14:45:31;16.60;94.20
52058;DHT22;38063;53.210;6.504;2023-05-01T14:47:57;16.50;94.30
52058;DHT22;38063;53.210;6.504;2023-05-01T14:50:23;16.50;94.70
52058;DHT22;38063;53.210;6.504;2023-05-01T14:52:57;16.60;95.10
52058;DHT22;38063;53.210;6.504;2023-05-01T14:55:28;16.60;95.50
52058;DHT22;38063;53.210;6.504;2023-05-01T14:57:55;16.60;95.10
52058;DHT22;38063;53.210;6.504;2023-05-01T15:00:22;16.60;95.10
52058;DHT22;38063;53.210;6.504;2023-05-01T15:02:48;16.60;95.20
52058;DHT22;38063;53.210;6.504;2023-05-01T15:05:14;16.60;95.60
52058;DHT22;38063;53.210;6.504;2023-05-01T15:07:40;16.60;96.00
52058;DHT22;38063;53.210;6.504;2023-05-01T15:10:07;16.70;96.60
52058;DHT22;38063;53.210;6.504;2023-05-01T15:12:32;16.60;97.50
52058;DHT22;38063;53.210;6.504;2023-05-01T15:14:58;16.60;98.60
52058;DHT22;38063;53.210;6.504;2023-05-01T15:17:24;16.60;99.60
52058;DHT22;38063;53.210;6.504;2023-05-01T15:19:50;16.60;99.90
52058;DHT22;38063;53.210;6.504;2023-05-01T15:22:15;16.60;99.90
52058;DHT22;38063;53.210;6.504;2023-05-01T15:24:41;16.50;99.90
52058;DHT22;38063;53.210;6.504;2023-05-01T15:27:07;16.50;99.90
52058;DHT22;38063;53.210;6.504;2023-05-01T15:29:33;16.40;99.90
52058;DHT22;38063;53.210;6.504;2023-05-01T15:32:00;16.30;99.90
52058;DHT22;38063;53.210;6.504;2023-05-01T15:34:27;16.30;99.90
52058;DHT22;38063;53.210;6.504;2023-05-01T15:36:53;16.30;99.90
52058;DHT22;38063;53.210;6.504;2023-05-01T15:39:18;16.20;99.90
52058;DHT22;38063;53.210;6.504;2023-05-01T15:41:45;16.30;99.90
52058;DHT22;38063;53.210;6.504;2023-05-01T15:44:11;16.30;99.90
52058;DHT22;38063;53.210;6.504;2023-05-01T15:46:37;16.30;99.90
52058;DHT22;38063;53.210;6.504;2023-05-01T15:49:07;16.30;99.90
52058;DHT22;38063;53.210;6.504;2023-05-01T15:51:33;16.30;99.90
52058;DHT22;38063;53.210;6.504;2023-05-01T15:53:59;16.30;99.90
52058;DHT22;38063;53.210;6.504;2023-05-01T15:56:26;16.30;99.90
52058;DHT22;38063;53.210;6.504;2023-05-01T15:58:52;16.20;99.90
52058;DHT22;38063;53.210;6.504;2023-05-01T16:01:17;16.20;99.90
52058;DHT22;38063;53.210;6.504;2023-05-01T16:03:45;16.20;99.90
52058;DHT22;38063;53.210;6.504;2023-05-01T16:06:12;16.20;99.90
52058;DHT22;38063;53.210;6.504;2023-05-01T16:08:40;16.20;99.90